Time;durP1;ratioP1;P1;durP2;ratioP2;P2;SDS_P1;SDS_P2;PMS_P1;PMS_P2;Temp;Humidity;BMP_temperature;BMP_pressure;BME280_temperature;BME280_humidity;BME280_pressure;Samples;Min_cycle;Max_cycle;Signal;HPM_P1;HPM_P2
2023/01/07 00:00:53;;;;;;;2.67;0.93;;;1.90;99.90;;;;;;5127736;27;20895;-46
2023/01/07 00:03:21;;;;;;;1.73;1.03;;;1.70;99.90;;;;;;5128348;27;21041;-47
2023/01/07 00:05:48;;;;;;;1.17;0.97;;;1.70;99.90;;;;;;5127341;27;20553;-46
2023/01/07 00:08:15;;;;;;;1.53;1.00;;;1.80;99.90;;;;;;5120313;27;20856;-43
2023/01/07 00:10:42;;;;;;;2.37;1.20;;;1.60;99.90;;;;;;5128147;27;20533;-46
2023/01/07 00:13:08;;;;;;;1.53;0.90;;;1.60;99.90;;;;;;5129149;27;20475;-46
2023/01/07 00:15:35;;;;;;;1.80;1.00;;;1.60;99.90;;;;;;5120076;27;20519;-47
2023/01/07 00:18:02;;;;;;;2.80;1.10;;;1.50;99.90;;;;;;5113217;27;20520;-47
2023/01/07 00:20:30;;;;;;;1.57;1.00;;;1.60;99.90;;;;;;5119068;27;20445;-47
2023/01/07 00:22:57;;;;;;;1.23;1.10;;;1.80;99.90;;;;;;5109706;28;20567;-46
2023/01/07 00:25:24;;;;;;;1.77;1.13;;;1.90;99.90;;;;;;5122597;27;20550;-46
2023/01/07 00:27:51;;;;;;;1.43;1.30;;;1.80;99.90;;;;;;5120112;27;20479;-46
2023/01/07 00:30:18;;;;;;;2.20;1.50;;;1.50;99.90;;;;;;5112512;27;21039;-47
2023/01/07 00:32:58;;;;;;;1.60;1.30;;;1.30;99.90;;;;;;5126023;27;20521;-49
2023/01/07 00:35:25;;;;;;;2.10;1.57;;;1.30;99.90;;;;;;5115042;27;20470;-46
2023/01/07 00:37:54;;;;;;;2.70;2.40;;;1.20;99.90;;;;;;5109406;27;20447;-46
2023/01/07 00:40:22;;;;;;;1.93;1.20;;;1.30;99.90;;;;;;5115774;27;20530;-46
2023/01/07 00:43:00;;;;;;;3.50;2.43;;;1.30;99.90;;;;;;5122532;27;20515;-47
2023/01/07 00:45:27;;;;;;;4.70;2.50;;;1.20;99.90;;;;;;5113615;28;20545;-49
2023/01/07 00:47:54;;;;;;;3.70;2.00;;;1.50;99.90;;;;;;5110096;28;20443;-47
2023/01/07 00:50:21;;;;;;;3.53;2.17;;;1.60;99.90;;;;;;5115876;28;20986;-46
2023/01/07 00:52:49;;;;;;;1.97;1.67;;;1.90;99.90;;;;;;5129855;27;20536;-47
2023/01/07 00:55:17;;;;;;;2.23;1.97;;;2.00;99.90;;;;;;5128037;27;20506;-45
2023/01/07 00:57:45;;;;;;;2.47;2.27;;;2.00;99.90;;;;;;5122634;27;20885;-47
2023/01/07 01:00:14;;;;;;;2.20;2.00;;;2.00;99.90;;;;;;5115080;28;20534;-46
2023/01/07 01:02:41;;;;;;;2.77;2.47;;;1.70;99.90;;;;;;5127691;27;20470;-48
2023/01/07 01:05:10;;;;;;;4.40;1.83;;;1.40;99.90;;;;;;5113240;27;20546;-46
2023/01/07 01:07:37;;;;;;;1.77;1.60;;;1.30;99.90;;;;;;5123043;28;20523;-46
2023/01/07 01:10:06;;;;;;;2.23;2.00;;;1.20;99.90;;;;;;5118657;28;20451;-46
2023/01/07 01:12:35;;;;;;;2.43;1.90;;;1.20;99.90;;;;;;5128746;27;20940;-48
2023/01/07 01:15:03;;;;;;;3.03;2.10;;;1.70;99.90;;;;;;5129591;27;20463;-46
2023/01/07 01:17:30;;;;;;;3.60;2.73;;;1.90;99.90;;;;;;5126602;27;20850;-48
2023/01/07 01:19:57;;;;;;;2.33;2.03;;;1.60;99.90;;;;;;5111588;28;20525;-46
2023/01/07 01:22:24;;;;;;;1.90;1.60;;;1.30;99.90;;;;;;5127818;28;20895;-49
2023/01/07 01:24:51;;;;;;;2.73;2.53;;;1.40;99.90;;;;;;5128932;27;20549;-46
2023/01/07 01:27:19;;;;;;;1.90;1.70;;;1.60;99.90;;;;;;5125409;27;20475;-46
2023/01/07 01:29:47;;;;;;;3.00;2.00;;;1.60;99.90;;;;;;5113818;28;20518;-47
2023/01/07 01:32:14;;;;;;;3.20;1.90;;;1.80;99.90;;;;;;5109724;28;20471;-43
2023/01/07 01:34:41;;;;;;;2.00;1.80;;;1.60;99.90;;;;;;5118696;28;20545;-47
2023/01/07 01:37:08;;;;;;;1.40;1.20;;;1.20;99.90;;;;;;5129853;27;20478;-47
2023/01/07 01:39:35;;;;;;;1.60;1.10;;;1.00;99.90;;;;;;5110326;27;20808;-46
2023/01/07 01:42:02;;;;;;;2.60;1.60;;;1.00;99.90;;;;;;5124576;27;20549;-44
2023/01/07 01:44:44;;;;;;;2.17;1.20;;;1.10;99.90;;;;;;5123736;27;20552;-46
2023/01/07 01:47:19;;;;;;;1.77;1.37;;;1.20;99.90;;;;;;5108584;28;20531;-46
2023/01/07 01:49:50;;;;;;;1.43;1.30;;;1.30;99.90;;;;;;5107776;28;20515;-46
2023/01/07 01:52:19;;;;;;;2.47;1.53;;;1.50;99.90;;;;;;5107668;28;20882;-46
2023/01/07 01:54:50;;;;;;;1.43;1.00;;;1.40;99.90;;;;;;5106967;28;20541;-49
2023/01/07 01:57:18;;;;;;;1.60;1.07;;;1.30;99.90;;;;;;5107950;28;20519;-46
2023/01/07 01:59:48;;;;;;;1.80;1.33;;;1.00;99.90;;;;;;5107661;28;20446;-47
2023/01/07 02:02:19;;;;;;;1.10;0.90;;;0.90;99.90;;;;;;5112289;28;20489;-44
2023/01/07 02:04:47;;;;;;;2.93;2.00;;;1.00;99.90;;;;;;5115921;27;20509;-46
2023/01/07 02:07:16;;;;;;;2.73;2.00;;;1.00;99.90;;;;;;5133139;27;20525;-46
2023/01/07 02:09:43;;;;;;;4.20;1.87;;;0.80;99.90;;;;;;5127872;27;20467;-48
2023/01/07 02:12:22;;;;;;;2.60;1.43;;;0.70;99.90;;;;;;5120964;27;20466;-45
2023/01/07 02:15:06;;;;;;;2.73;1.30;;;0.80;99.90;;;;;;5132488;27;20501;-47
2023/01/07 02:17:47;;;;;;;3.40;1.80;;;0.80;99.90;;;;;;5130091;27;20933;-48
2023/01/07 02:20:34;;;;;;;1.77;1.43;;;0.90;99.90;;;;;;5117003;27;20477;-46
2023/01/07 02:23:37;;;;;;;1.93;1.40;;;0.90;99.90;;;;;;5126987;27;20557;-46
2023/01/07 02:26:41;;;;;;;1.83;1.33;;;0.80;99.90;;;;;;5128305;27;20525;-46
2023/01/07 02:29:40;;;;;;;1.57;1.00;;;0.90;99.90;;;;;;5123816;27;20479;-46
2023/01/07 02:32:20;;;;;;;1.40;1.00;;;1.00;99.90;;;;;;5130327;27;20566;-46
2023/01/07 02:34:57;;;;;;;1.10;0.70;;;1.00;99.90;;;;;;5111971;27;20558;-48
2023/01/07 02:37:30;;;;;;;1.37;0.90;;;1.40;99.90;;;;;;5111469;27;21002;-48
2023/01/07 02:40:01;;;;;;;1.27;0.90;;;1.70;99.90;;;;;;5131854;27;20865;-47
2023/01/07 02:42:37;;;;;;;1.20;0.97;;;1.50;99.90;;;;;;5114600;27;20519;-46
2023/01/07 02:45:10;;;;;;;2.60;1.27;;;1.30;99.90;;;;;;5131894;27;20458;-46
2023/01/07 02:47:44;;;;;;;2.07;1.23;;;1.60;99.90;;;;;;5129345;27;20525;-48
2023/01/07 02:50:10;;;;;;;2.70;1.27;;;1.80;99.90;;;;;;5111298;28;20531;-46
2023/01/07 02:52:38;;;;;;;1.73;1.63;;;1.80;99.90;;;;;;5124067;27;20529;-48
2023/01/07 02:55:10;;;;;;;1.07;0.70;;;1.00;99.90;;;;;;5129271;27;20546;-45
2023/01/07 02:58:14;;;;;;;1.73;1.23;;;0.90;99.90;;;;;;5130647;27;20526;-46
2023/01/07 03:01:09;;;;;;;1.60;1.40;;;1.00;99.90;;;;;;5129024;27;20498;-46
2023/01/07 03:03:49;;;;;;;1.17;0.93;;;0.80;99.90;;;;;;5115952;27;20556;-48
2023/01/07 03:06:34;;;;;;;2.53;1.60;;;0.50;99.90;;;;;;5122676;27;20538;-44
2023/01/07 03:09:08;;;;;;;3.20;1.40;;;0.30;99.90;;;;;;5112748;27;20470;-46
2023/01/07 03:11:41;;;;;;;1.70;1.23;;;0.00;99.90;;;;;;5111309;27;20462;-49
2023/01/07 03:14:16;;;;;;;2.13;1.57;;;0.00;99.90;;;;;;5111213;28;20482;-46
2023/01/07 03:16:46;;;;;;;1.80;1.10;;;0.10;99.90;;;;;;5112487;27;20517;-46
2023/01/07 03:19:18;;;;;;;1.90;1.13;;;0.30;99.90;;;;;;5124412;27;20489;-46
2023/01/07 03:21:47;;;;;;;1.80;1.13;;;0.70;99.90;;;;;;5130148;27;20826;-46
2023/01/07 03:24:16;;;;;;;1.60;1.13;;;0.60;99.90;;;;;;5131141;27;20485;-43
2023/01/07 03:26:47;;;;;;;2.07;1.40;;;0.90;99.90;;;;;;5129675;27;20525;-46
2023/01/07 03:29:15;;;;;;;1.37;1.13;;;1.20;99.90;;;;;;5120918;27;20526;-47
2023/01/07 03:31:51;;;;;;;1.40;1.20;;;1.10;99.90;;;;;;5120197;27;20523;-47
2023/01/07 03:34:24;;;;;;;1.90;1.70;;;1.10;99.90;;;;;;5123126;27;20553;-46
2023/01/07 03:36:55;;;;;;;2.00;1.30;;;0.60;99.90;;;;;;5131474;27;20480;-46
2023/01/07 03:39:26;;;;;;;1.90;1.00;;;0.60;99.90;;;;;;5123589;27;20543;-49
2023/01/07 03:44:39;;;;;;;1.77;1.10;;;0.60;99.90;;;;;;5110333;27;20458;-47
2023/01/07 03:47:07;;;;;;;1.60;1.13;;;0.70;99.90;;;;;;5117570;27;21022;-46
2023/01/07 03:49:36;;;;;;;2.90;1.20;;;0.80;99.90;;;;;;5125817;27;20526;-46
2023/01/07 03:52:04;;;;;;;1.97;1.20;;;0.90;99.90;;;;;;5129041;27;20517;-46
2023/01/07 03:54:31;;;;;;;3.13;1.40;;;0.70;99.90;;;;;;5125555;27;20509;-46
2023/01/07 03:56:57;;;;;;;2.60;1.10;;;0.60;99.90;;;;;;5131452;27;20474;-46
2023/01/07 03:59:24;;;;;;;1.37;1.23;;;0.60;99.90;;;;;;5116195;27;20484;-46
2023/01/07 04:01:51;;;;;;;1.40;1.00;;;0.60;99.90;;;;;;5121218;27;20694;-47
2023/01/07 04:04:18;;;;;;;2.23;1.27;;;0.90;99.90;;;;;;5126943;27;21011;-46
2023/01/07 04:06:47;;;;;;;1.40;1.20;;;1.20;99.90;;;;;;5129951;27;20534;-46
2023/01/07 04:09:17;;;;;;;1.20;1.00;;;1.10;99.90;;;;;;5118486;27;20470;-45
2023/01/07 04:11:44;;;;;;;1.60;1.00;;;1.00;99.90;;;;;;5124818;27;20492;-46
2023/01/07 04:14:11;;;;;;;1.00;0.70;;;1.10;99.90;;;;;;5108502;27;20566;-46
2023/01/07 04:16:38;;;;;;;2.50;1.63;;;0.70;99.90;;;;;;5125268;27;20522;-48
2023/01/07 04:19:05;;;;;;;2.13;1.20;;;0.60;99.90;;;;;;5116781;27;20576;-46
2023/01/07 04:21:32;;;;;;;1.00;0.80;;;0.50;99.90;;;;;;5114829;27;20849;-46
2023/01/07 04:24:00;;;;;;;1.67;0.80;;;0.30;99.90;;;;;;5129111;27;20698;-46
2023/01/07 04:26:27;;;;;;;1.00;0.80;;;0.50;99.90;;;;;;5126057;27;20518;-49
2023/01/07 04:28:54;;;;;;;1.07;0.70;;;0.60;99.90;;;;;;5118959;27;20523;-47
2023/01/07 04:31:21;;;;;;;1.20;0.83;;;0.50;99.90;;;;;;5113009;27;20469;-46
2023/01/07 04:33:48;;;;;;;1.77;1.10;;;0.40;99.90;;;;;;5108808;27;20565;-46
2023/01/07 04:36:15;;;;;;;1.10;0.87;;;0.40;99.90;;;;;;5129436;27;20477;-42
2023/01/07 04:38:42;;;;;;;1.17;0.73;;;0.60;99.90;;;;;;5118113;27;20482;-47
2023/01/07 04:41:10;;;;;;;1.17;0.80;;;0.60;99.90;;;;;;5121726;27;20892;-45
2023/01/07 04:43:37;;;;;;;1.30;0.80;;;0.50;99.90;;;;;;5119041;27;20467;-47
2023/01/07 04:46:04;;;;;;;1.10;1.00;;;0.20;99.90;;;;;;5114270;27;20880;-47
2023/01/07 04:48:32;;;;;;;1.00;0.80;;;0.00;99.90;;;;;;5127810;28;20492;-47
2023/01/07 04:50:59;;;;;;;1.10;0.70;;;0.20;99.90;;;;;;5129023;27;20477;-50
2023/01/07 04:53:25;;;;;;;2.10;1.17;;;0.30;99.90;;;;;;5116487;27;20983;-47
2023/01/07 04:55:53;;;;;;;0.97;0.80;;;0.40;99.90;;;;;;5120930;28;20466;-47
2023/01/07 04:58:21;;;;;;;1.53;1.20;;;0.30;99.90;;;;;;5124001;27;20862;-47
2023/01/07 05:00:48;;;;;;;1.27;0.60;;;0.40;99.90;;;;;;5110231;28;20539;-46
2023/01/07 05:03:15;;;;;;;2.80;1.10;;;0.50;99.90;;;;;;5120803;28;20875;-46
2023/01/07 05:05:42;;;;;;;4.00;2.30;;;0.70;99.90;;;;;;5111818;27;20462;-47
2023/01/07 05:08:09;;;;;;;2.43;2.20;;;1.00;99.90;;;;;;5116327;28;20477;-47
2023/01/07 05:10:35;;;;;;;2.17;1.10;;;0.80;99.90;;;;;;5128938;27;20469;-47
2023/01/07 05:13:04;;;;;;;1.10;0.80;;;0.70;99.90;;;;;;5128702;27;20488;-47
2023/01/07 05:15:32;;;;;;;1.43;0.80;;;0.50;99.90;;;;;;5120167;27;20473;-47
2023/01/07 05:17:59;;;;;;;1.57;0.97;;;0.50;99.90;;;;;;5116915;28;20473;-48
2023/01/07 05:20:26;;;;;;;1.13;0.83;;;0.70;99.90;;;;;;5124317;27;20932;-47
2023/01/07 05:22:53;;;;;;;1.10;0.87;;;0.80;99.90;;;;;;5129595;27;20539;-45
2023/01/07 05:25:20;;;;;;;1.50;1.40;;;0.60;99.90;;;;;;5127614;27;20495;-47
2023/01/07 05:27:47;;;;;;;2.80;1.83;;;0.50;99.90;;;;;;5122329;27;20532;-47
2023/01/07 05:30:14;;;;;;;6.80;4.23;;;0.40;99.90;;;;;;5108740;28;20518;-47
2023/01/07 05:32:42;;;;;;;6.27;4.20;;;0.70;99.90;;;;;;5114904;28;20521;-47
2023/01/07 05:35:09;;;;;;;1.60;1.10;;;0.50;99.90;;;;;;5130762;27;20558;-47
2023/01/07 05:37:36;;;;;;;2.20;1.77;;;0.40;99.90;;;;;;5127014;27;20531;-47
2023/01/07 05:40:03;;;;;;;2.00;1.90;;;0.30;99.90;;;;;;5115409;27;20529;-47
2023/01/07 05:42:30;;;;;;;1.90;0.87;;;0.40;99.90;;;;;;5127651;27;20959;-49
2023/01/07 05:44:57;;;;;;;1.97;1.20;;;0.10;99.90;;;;;;5122588;27;20495;-47
2023/01/07 05:47:24;;;;;;;1.97;1.10;;;0.10;99.90;;;;;;5129884;27;20481;-47
2023/01/07 05:49:52;;;;;;;1.50;1.10;;;0.30;99.90;;;;;;5125254;27;21022;-47
2023/01/07 05:52:19;;;;;;;1.20;0.77;;;0.60;99.90;;;;;;5123437;27;20523;-47
2023/01/07 05:54:46;;;;;;;1.77;1.00;;;0.80;99.90;;;;;;5113673;27;20550;-46
2023/01/07 05:57:13;;;;;;;1.83;1.53;;;0.50;99.90;;;;;;5128378;27;20490;-50
2023/01/07 05:59:40;;;;;;;1.87;1.77;;;0.40;99.90;;;;;;5117417;27;20887;-48
2023/01/07 06:02:06;;;;;;;1.77;1.07;;;0.30;99.90;;;;;;5122930;27;20523;-50
2023/01/07 06:04:34;;;;;;;1.60;1.37;;;0.10;99.90;;;;;;5113931;27;21042;-47
2023/01/07 06:07:02;;;;;;;2.47;1.90;;;0.00;99.90;;;;;;5131932;27;20934;-46
2023/01/07 06:09:29;;;;;;;8.33;2.40;;;-0.10;99.90;;;;;;5130935;27;20480;-47
2023/01/07 06:11:57;;;;;;;2.40;2.20;;;-0.30;99.90;;;;;;5122964;27;20443;-47
2023/01/07 06:14:24;;;;;;;2.60;2.17;;;-0.30;99.90;;;;;;5111555;28;20486;-49
2023/01/07 06:16:51;;;;;;;2.80;2.23;;;-0.30;99.90;;;;;;5126854;27;20538;-47
2023/01/07 06:19:18;;;;;;;2.53;1.90;;;-0.50;99.90;;;;;;5117886;27;20471;-47
2023/01/07 06:21:45;;;;;;;4.50;2.73;;;-0.40;99.90;;;;;;5122951;27;20534;-47
2023/01/07 06:24:13;;;;;;;2.73;2.47;;;-0.30;99.90;;;;;;5130689;27;20541;-49
2023/01/07 06:26:40;;;;;;;3.43;2.70;;;0.00;99.90;;;;;;5122376;27;20522;-47
2023/01/07 06:29:07;;;;;;;3.13;2.43;;;0.10;99.90;;;;;;5112908;27;20486;-48
2023/01/07 06:31:34;;;;;;;4.77;2.17;;;0.30;99.90;;;;;;5116409;27;20994;-47
2023/01/07 06:34:01;;;;;;;2.37;1.77;;;0.40;99.90;;;;;;5115458;27;20557;-47
2023/01/07 06:36:28;;;;;;;3.37;2.40;;;0.50;99.90;;;;;;5131843;27;20470;-48
2023/01/07 06:38:54;;;;;;;4.10;2.80;;;0.30;99.90;;;;;;5120456;27;20466;-48
2023/01/07 06:41:23;;;;;;;6.33;4.90;;;-0.30;99.90;;;;;;5128701;27;20477;-49
2023/01/07 06:43:49;;;;;;;7.77;4.90;;;-0.50;99.90;;;;;;5130245;27;20741;-50
2023/01/07 06:46:16;;;;;;;5.97;5.37;;;-0.20;99.90;;;;;;5130689;27;20466;-47
2023/01/07 06:48:43;;;;;;;9.63;5.90;;;-0.10;99.90;;;;;;5119335;27;20483;-47
2023/01/07 06:51:10;;;;;;;5.50;3.30;;;-0.30;99.90;;;;;;5122632;27;20885;-48
2023/01/07 06:53:37;;;;;;;4.63;3.47;;;-0.20;99.90;;;;;;5131072;27;20518;-47
2023/01/07 06:56:04;;;;;;;6.00;3.90;;;-0.10;99.90;;;;;;5131055;27;20534;-47
2023/01/07 06:58:32;;;;;;;6.63;2.90;;;-0.10;99.90;;;;;;5124027;27;20530;-48
2023/01/07 07:01:03;;;;;;;4.30;2.97;;;0.00;99.90;;;;;;5116832;27;20485;-47
2023/01/07 07:03:30;;;;;;;6.20;4.10;;;0.30;99.90;;;;;;5122768;27;20435;-47
2023/01/07 07:05:57;;;;;;;6.53;4.47;;;0.00;99.90;;;;;;5114578;27;20520;-48
2023/01/07 07:08:24;;;;;;;5.67;5.07;;;-0.10;99.90;;;;;;5124896;27;20478;-47
2023/01/07 07:10:51;;;;;;;8.70;5.40;;;0.20;99.90;;;;;;5124206;27;20446;-47
2023/01/07 07:13:18;;;;;;;6.57;3.77;;;0.10;99.90;;;;;;5127820;27;20442;-47
2023/01/07 07:15:47;;;;;;;6.20;4.73;;;0.10;99.90;;;;;;5130716;27;20554;-47
2023/01/07 07:18:14;;;;;;;5.57;3.20;;;0.20;99.90;;;;;;5120204;27;20435;-44
2023/01/07 07:20:41;;;;;;;3.87;2.20;;;0.50;99.90;;;;;;5118465;27;20482;-48
2023/01/07 07:23:08;;;;;;;4.70;3.00;;;0.20;99.90;;;;;;5128609;27;20496;-47
2023/01/07 07:25:35;;;;;;;7.80;4.97;;;0.20;99.90;;;;;;5128150;27;20485;-46
2023/01/07 07:28:02;;;;;;;10.93;6.87;;;0.30;99.90;;;;;;5128000;27;20525;-48
2023/01/07 07:30:28;;;;;;;9.87;7.80;;;-0.20;99.90;;;;;;5129295;27;20744;-49
2023/01/07 07:33:01;;;;;;;13.70;8.00;;;-0.30;99.90;;;;;;5117679;27;20465;-50
2023/01/07 07:35:28;;;;;;;6.93;6.23;;;-0.20;99.90;;;;;;5122146;27;20562;-47
2023/01/07 07:37:54;;;;;;;6.10;4.87;;;-0.10;99.90;;;;;;5131646;27;20533;-48
2023/01/07 07:40:21;;;;;;;5.07;3.63;;;0.10;99.90;;;;;;5131629;27;20470;-48
2023/01/07 07:42:48;;;;;;;4.00;2.87;;;0.10;99.90;;;;;;5119357;27;20493;-47
2023/01/07 07:45:18;;;;;;;5.20;4.00;;;0.10;99.90;;;;;;5116182;27;20485;-45
2023/01/07 07:47:45;;;;;;;8.50;4.10;;;0.10;99.90;;;;;;5123043;27;20447;-47
2023/01/07 07:50:13;;;;;;;7.17;5.00;;;0.20;99.90;;;;;;5115790;27;20944;-48
2023/01/07 07:52:40;;;;;;;6.80;4.10;;;0.20;99.90;;;;;;5113458;27;20471;-47
2023/01/07 07:55:08;;;;;;;7.13;4.47;;;0.40;99.90;;;;;;5127238;27;20560;-47
2023/01/07 07:57:35;;;;;;;24.03;13.97;;;0.30;99.90;;;;;;5126863;27;20495;-47
2023/01/07 08:00:02;;;;;;;9.97;6.60;;;0.20;99.90;;;;;;5125094;27;20530;-47
2023/01/07 08:02:29;;;;;;;9.83;6.70;;;0.00;99.90;;;;;;5124569;27;21027;-48
2023/01/07 08:04:56;;;;;;;6.30;4.73;;;0.30;99.90;;;;;;5116418;27;20561;-47
2023/01/07 08:07:24;;;;;;;6.63;4.50;;;0.50;99.90;;;;;;5127515;27;20501;-46
2023/01/07 08:09:51;;;;;;;10.43;6.23;;;0.40;99.90;;;;;;5126978;27;20541;-47
2023/01/07 08:12:18;;;;;;;13.80;7.47;;;0.10;99.90;;;;;;5113619;27;20462;-47
2023/01/07 08:14:44;;;;;;;12.37;7.53;;;-0.20;99.90;;;;;;5128291;27;20502;-48
2023/01/07 08:17:11;;;;;;;11.10;6.93;;;-0.30;99.90;;;;;;5126133;27;20530;-50
2023/01/07 08:19:38;;;;;;;14.37;7.50;;;-0.50;99.90;;;;;;5115216;27;20529;-47
2023/01/07 08:22:05;;;;;;;9.00;6.80;;;-0.60;99.90;;;;;;5127309;27;20512;-49
2023/01/07 08:24:33;;;;;;;8.53;5.37;;;-0.40;99.90;;;;;;5110554;27;20906;-48
2023/01/07 08:27:01;;;;;;;7.87;5.60;;;-0.40;99.90;;;;;;5109334;28;20491;-47
2023/01/07 08:29:28;;;;;;;6.17;4.33;;;-0.20;99.90;;;;;;5114107;27;20441;-48
2023/01/07 08:31:55;;;;;;;4.53;3.90;;;0.30;99.90;;;;;;5121138;27;20474;-46
2023/01/07 08:34:22;;;;;;;4.83;4.13;;;0.20;99.90;;;;;;5124748;27;21032;-49
2023/01/07 08:36:49;;;;;;;9.47;5.33;;;0.30;99.90;;;;;;5117527;27;20478;-48
2023/01/07 08:39:17;;;;;;;7.43;5.57;;;0.70;99.90;;;;;;5109322;28;20447;-47
2023/01/07 08:41:45;;;;;;;5.83;4.97;;;0.80;99.90;;;;;;5109055;28;21024;-47
2023/01/07 08:44:12;;;;;;;10.40;5.83;;;0.50;99.90;;;;;;5108536;28;20488;-46
2023/01/07 08:46:40;;;;;;;8.40;5.87;;;0.20;99.90;;;;;;5123646;27;20474;-50
2023/01/07 08:49:09;;;;;;;8.23;6.60;;;0.30;99.90;;;;;;5113581;28;20646;-48
2023/01/07 08:51:36;;;;;;;7.07;5.47;;;0.20;99.90;;;;;;5110026;28;20471;-49
2023/01/07 08:54:03;;;;;;;7.43;5.23;;;0.40;99.90;;;;;;5109665;28;20539;-47
2023/01/07 08:56:32;;;;;;;7.67;6.03;;;0.40;99.90;;;;;;5117672;28;20569;-50
2023/01/07 08:59:00;;;;;;;10.17;7.60;;;0.30;99.90;;;;;;5128777;27;20495;-47
2023/01/07 09:01:27;;;;;;;9.00;6.83;;;0.10;99.90;;;;;;5129623;27;20545;-48
2023/01/07 09:03:54;;;;;;;11.10;6.90;;;-0.30;99.90;;;;;;5128245;27;20566;-48
2023/01/07 09:06:22;;;;;;;7.83;6.17;;;-0.40;99.90;;;;;;5119750;28;20430;-47
2023/01/07 09:08:50;;;;;;;6.23;3.77;;;-0.30;99.90;;;;;;5127145;27;20529;-47
2023/01/07 09:11:17;;;;;;;7.17;4.43;;;-0.30;99.90;;;;;;5123180;27;20464;-47
2023/01/07 09:13:43;;;;;;;5.37;3.50;;;0.00;99.90;;;;;;5122020;27;20554;-47
2023/01/07 09:16:12;;;;;;;5.70;3.83;;;0.00;99.90;;;;;;5137247;27;20476;-46
2023/01/07 09:18:39;;;;;;;6.67;4.43;;;0.20;99.90;;;;;;5114902;27;20446;-47
2023/01/07 09:21:06;;;;;;;12.20;5.90;;;0.60;99.90;;;;;;5114309;28;20474;-47
2023/01/07 09:23:33;;;;;;;13.53;6.40;;;0.80;99.90;;;;;;5120808;27;20549;-47
2023/01/07 09:26:00;;;;;;;8.63;5.97;;;0.90;99.90;;;;;;5132455;27;20532;-50
2023/01/07 09:28:27;;;;;;;7.83;6.23;;;1.00;99.90;;;;;;5133820;27;20978;-47
2023/01/07 09:30:54;;;;;;;7.23;5.23;;;0.80;99.90;;;;;;5133301;27;21268;-46
2023/01/07 09:33:22;;;;;;;7.30;5.20;;;0.80;99.90;;;;;;5132164;27;20971;-48
2023/01/07 09:35:49;;;;;;;10.03;6.27;;;0.90;99.90;;;;;;5126770;27;20561;-47
2023/01/07 09:38:16;;;;;;;7.67;4.13;;;1.10;99.90;;;;;;5114138;27;20513;-47
2023/01/07 09:40:44;;;;;;;7.73;4.50;;;1.00;99.90;;;;;;5122353;27;20485;-48
2023/01/07 09:43:16;;;;;;;4.20;2.93;;;1.10;99.90;;;;;;5121535;27;21109;-49
2023/01/07 09:45:46;;;;;;;5.63;4.00;;;1.00;99.90;;;;;;5123399;27;20485;-47
2023/01/07 09:48:20;;;;;;;9.80;7.33;;;0.80;99.90;;;;;;5122794;27;20435;-48
2023/01/07 09:50:55;;;;;;;6.03;4.10;;;0.30;99.90;;;;;;5113777;28;20934;-47
2023/01/07 09:53:26;;;;;;;5.63;4.70;;;0.40;99.90;;;;;;5115258;27;20472;-48
2023/01/07 09:55:55;;;;;;;5.83;5.07;;;0.40;99.90;;;;;;5124043;27;20557;-47
2023/01/07 09:58:22;;;;;;;8.50;5.93;;;0.70;99.90;;;;;;5122702;27;20518;-50
2023/01/07 10:01:00;;;;;;;9.27;6.03;;;1.00;99.90;;;;;;5122463;27;20529;-47
2023/01/07 10:03:44;;;;;;;10.20;6.43;;;1.20;99.90;;;;;;5122313;27;20525;-47
2023/01/07 10:06:18;;;;;;;9.03;6.53;;;1.10;99.90;;;;;;5124094;27;20465;-47
2023/01/07 10:08:58;;;;;;;264.50;116.77;;;1.30;99.90;;;;;;5123189;27;20538;-47
2023/01/07 10:11:35;;;;;;;74.70;39.33;;;1.10;99.90;;;;;;5123194;27;20499;-47
2023/01/07 10:14:30;;;;;;;22.53;17.20;;;1.00;99.90;;;;;;5111504;28;20492;-50
2023/01/07 10:17:08;;;;;;;15.50;10.90;;;1.20;99.90;;;;;;5112153;28;20902;-49
2023/01/07 10:19:40;;;;;;;15.07;9.53;;;1.40;99.90;;;;;;5118321;27;20518;-50
2023/01/07 10:22:15;;;;;;;4.67;4.13;;;1.60;99.90;;;;;;5119877;27;21049;-47
2023/01/07 10:24:46;;;;;;;4.80;3.20;;;1.90;99.90;;;;;;5122935;27;20458;-48
2023/01/07 10:27:16;;;;;;;1.70;1.37;;;2.00;99.90;;;;;;5120025;27;20442;-50
2023/01/07 10:29:45;;;;;;;2.20;1.60;;;2.10;99.90;;;;;;5119860;27;20469;-49
2023/01/07 10:32:14;;;;;;;4.30;2.80;;;2.10;99.90;;;;;;5119888;27;20457;-47
2023/01/07 10:34:46;;;;;;;7.33;4.10;;;2.20;99.90;;;;;;5119736;27;20848;-47
2023/01/07 10:37:22;;;;;;;18.73;8.50;;;2.40;99.90;;;;;;5119951;27;20772;-47
2023/01/07 10:39:56;;;;;;;15.37;8.50;;;2.50;99.90;;;;;;5119278;27;20462;-47
2023/01/07 10:42:32;;;;;;;11.40;7.40;;;2.40;99.90;;;;;;5118800;27;21000;-46
2023/01/07 10:45:28;;;;;;;7.27;4.90;;;2.60;99.90;;;;;;5120862;27;20872;-47
2023/01/07 10:48:20;;;;;;;12.67;5.97;;;2.70;99.90;;;;;;5122488;27;20438;-47
2023/01/07 10:51:02;;;;;;;9.53;5.57;;;2.80;99.90;;;;;;5116613;27;20857;-48
2023/01/07 10:53:43;;;;;;;4.77;4.10;;;2.80;99.90;;;;;;5119335;27;20476;-48
2023/01/07 10:56:22;;;;;;;5.23;2.60;;;2.90;99.90;;;;;;5129735;27;20554;-48
2023/01/07 10:58:50;;;;;;;4.40;2.13;;;3.00;99.90;;;;;;5120406;27;20461;-49
2023/01/07 11:01:24;;;;;;;2.70;1.63;;;3.20;99.90;;;;;;5126746;27;20520;-47
2023/01/07 11:03:53;;;;;;;2.30;1.93;;;3.40;99.90;;;;;;5117088;27;20468;-47
2023/01/07 11:06:26;;;;;;;2.70;1.73;;;3.40;99.90;;;;;;5117419;27;20438;-50
2023/01/07 11:08:54;;;;;;;3.23;2.50;;;3.50;99.90;;;;;;5129423;27;20529;-47
2023/01/07 11:11:24;;;;;;;3.63;1.80;;;3.50;99.90;;;;;;5120679;27;21012;-47
2023/01/07 11:13:58;;;;;;;3.90;1.97;;;3.60;99.90;;;;;;5121201;27;20500;-48
2023/01/07 11:16:28;;;;;;;1.87;1.67;;;3.60;99.90;;;;;;5120209;27;20570;-47
2023/01/07 11:19:00;;;;;;;1.73;1.20;;;3.90;99.90;;;;;;5120256;27;20820;-47
2023/01/07 11:21:36;;;;;;;1.83;1.60;;;3.80;99.90;;;;;;5132132;27;20444;-47
2023/01/07 11:24:29;;;;;;;1.70;1.37;;;3.90;99.90;;;;;;5119464;27;20467;-49
2023/01/07 11:27:01;;;;;;;4.20;2.40;;;4.10;99.90;;;;;;5120222;27;20444;-47
2023/01/07 11:29:34;;;;;;;2.83;2.20;;;4.10;99.90;;;;;;5110242;28;21055;-47
2023/01/07 11:32:04;;;;;;;3.60;1.93;;;4.30;99.90;;;;;;5110013;28;21017;-47
2023/01/07 11:34:35;;;;;;;2.07;1.80;;;4.40;99.90;;;;;;5110515;28;20467;-48
2023/01/07 11:37:02;;;;;;;2.57;2.37;;;4.50;99.90;;;;;;5111805;28;20555;-49
2023/01/07 11:39:33;;;;;;;3.37;2.70;;;4.50;99.90;;;;;;5110950;28;20440;-47
2023/01/07 11:42:37;;;;;;;3.20;1.97;;;4.60;99.90;;;;;;5111274;28;20492;-50
2023/01/07 11:44:49;;;;;;;3.37;2.27;;;4.60;99.90;;;;;;5110582;28;20455;-48
2023/01/07 11:47:18;;;;;;;3.43;2.50;;;4.60;99.90;;;;;;5111438;28;20526;-46
2023/01/07 11:49:45;;;;;;;2.70;1.83;;;4.60;99.90;;;;;;5108716;28;20524;-48
2023/01/07 11:52:18;;;;;;;2.50;2.20;;;4.80;99.90;;;;;;5119691;27;20532;-50
2023/01/07 11:54:51;;;;;;;3.77;2.63;;;4.80;99.90;;;;;;5124310;27;20473;-49
2023/01/07 11:57:23;;;;;;;2.47;2.00;;;5.00;99.90;;;;;;5128254;27;20483;-47
2023/01/07 12:00:12;;;;;;;1.90;1.77;;;4.90;99.90;;;;;;5128476;27;20449;-48
2023/01/07 12:02:39;;;;;;;2.53;2.10;;;4.90;99.90;;;;;;5128161;27;20464;-50
2023/01/07 12:05:18;;;;;;;2.47;1.90;;;5.00;99.90;;;;;;5113200;27;20551;-47
2023/01/07 12:07:47;;;;;;;3.77;2.33;;;5.10;99.90;;;;;;5106364;28;20546;-50
2023/01/07 12:10:31;;;;;;;2.23;2.00;;;5.00;99.90;;;;;;5107154;28;20442;-48
2023/01/07 12:13:01;;;;;;;2.00;1.50;;;5.00;99.90;;;;;;5106550;28;20446;-49
2023/01/07 12:15:31;;;;;;;1.73;1.63;;;5.10;99.90;;;;;;5106949;28;20554;-50
2023/01/07 12:18:36;;;;;;;3.30;1.60;;;5.20;99.90;;;;;;5107218;28;20953;-47
2023/01/07 12:21:32;;;;;;;3.70;1.73;;;5.20;99.90;;;;;;5104894;27;20479;-48
2023/01/07 12:24:26;;;;;;;1.90;1.57;;;5.20;99.90;;;;;;5132479;27;20572;-47
2023/01/07 12:27:02;;;;;;;2.17;1.40;;;5.30;99.90;;;;;;5146690;27;20453;-48
2023/01/07 12:29:43;;;;;;;3.50;1.80;;;5.40;99.90;;;;;;5148768;27;20476;-49
2023/01/07 12:32:23;;;;;;;1.93;1.73;;;5.50;99.90;;;;;;5148637;27;20448;-47
2023/01/07 12:34:55;;;;;;;2.37;1.77;;;5.40;99.90;;;;;;5147780;27;20544;-47
2023/01/07 12:37:31;;;;;;;2.87;1.73;;;5.40;99.90;;;;;;5136534;27;20557;-48
2023/01/07 12:40:06;;;;;;;2.30;1.80;;;5.40;99.90;;;;;;5107106;28;20538;-49
2023/01/07 12:42:38;;;;;;;2.87;1.80;;;5.40;99.90;;;;;;5108205;28;20470;-47
2023/01/07 12:45:15;;;;;;;1.93;1.73;;;5.40;99.90;;;;;;5105925;28;21057;-49
2023/01/07 12:47:49;;;;;;;2.40;2.17;;;5.40;99.90;;;;;;5107200;28;20448;-49
2023/01/07 12:50:21;;;;;;;2.20;1.70;;;5.40;99.90;;;;;;5106109;28;20451;-48
2023/01/07 12:52:51;;;;;;;4.87;2.53;;;5.40;99.90;;;;;;5136998;27;20537;-47
2023/01/07 12:55:21;;;;;;;2.30;2.00;;;5.50;99.90;;;;;;5106287;28;20495;-49
2023/01/07 12:58:04;;;;;;;3.40;2.20;;;5.50;99.90;;;;;;5106737;28;20485;-49
2023/01/07 13:00:35;;;;;;;3.17;2.43;;;5.60;99.90;;;;;;5111501;28;20444;-49
2023/01/07 13:03:15;;;;;;;2.73;2.23;;;5.70;99.90;;;;;;5115007;27;20812;-47
2023/01/07 13:05:47;;;;;;;4.83;2.60;;;5.80;99.90;;;;;;5116132;27;20549;-48
2023/01/07 13:08:23;;;;;;;3.90;2.67;;;5.80;99.90;;;;;;5114546;28;20536;-45
2023/01/07 13:10:56;;;;;;;4.07;2.23;;;5.80;99.90;;;;;;5114875;27;20469;-47
2023/01/07 13:13:27;;;;;;;8.23;3.17;;;5.80;99.90;;;;;;5115168;27;20527;-47
2023/01/07 13:15:55;;;;;;;3.30;2.77;;;5.80;99.90;;;;;;5115076;28;20513;-47